createdAt,value
2024-03-08T00:01:33.747Z,43.71
2024-03-08T00:04:00.048Z,45.34
2024-03-08T00:06:26.345Z,45.30
2024-03-08T00:08:52.750Z,45.21
2024-03-08T00:11:19.078Z,45.62
2024-03-08T00:13:45.364Z,44.51
2024-03-08T00:16:11.656Z,44.36
2024-03-08T00:18:38.123Z,46.03
2024-03-08T00:21:04.508Z,45.65
2024-03-08T00:23:30.837Z,46.04
2024-03-08T00:25:57.158Z,45.03
2024-03-08T00:28:23.443Z,44.02
2024-03-08T00:30:49.726Z,43.70
2024-03-08T00:33:16.041Z,43.71
2024-03-08T00:35:42.425Z,43.07
2024-03-08T00:38:08.742Z,42.91
2024-03-08T00:40:35.028Z,44.67
2024-03-08T00:43:01.324Z,44.91
2024-03-08T00:45:27.602Z,45.99
2024-03-08T00:47:54.002Z,46.62
2024-03-08T00:50:20.360Z,46.88
2024-03-08T00:52:46.649Z,46.22
2024-03-08T00:55:12.915Z,46.81
2024-03-08T00:57:39.207Z,46.68
2024-03-08T01:00:05.591Z,47.01
2024-03-08T01:02:31.967Z,47.57
2024-03-08T01:04:59.598Z,46.81
2024-03-08T01:07:25.890Z,46.88
2024-03-08T01:09:52.203Z,46.46
2024-03-08T01:12:18.602Z,45.71
2024-03-08T01:14:45.048Z,46.44
2024-03-08T01:17:11.400Z,46.42
2024-03-08T01:19:37.698Z,46.01
2024-03-08T01:22:03.987Z,44.21
2024-03-08T01:24:30.384Z,44.42
2024-03-08T01:26:56.673Z,43.91
2024-03-08T01:29:22.975Z,42.96
2024-03-08T01:31:49.266Z,43.80
2024-03-08T01:34:15.556Z,45.65
2024-03-08T01:36:41.850Z,43.60
2024-03-08T01:39:08.275Z,42.67
2024-03-08T01:41:34.652Z,41.68
2024-03-08T01:44:00.959Z,41.31
2024-03-08T01:46:27.270Z,39.46
2024-03-08T01:48:53.646Z,39.39
2024-03-08T01:51:20.028Z,40.04
2024-03-08T01:53:46.383Z,39.99
2024-03-08T01:56:12.717Z,39.18
2024-03-08T01:58:39.013Z,39.04
2024-03-08T02:01:05.373Z,37.37
2024-03-08T02:03:31.750Z,37.66
2024-03-08T02:05:58.108Z,40.64
2024-03-08T02:08:24.419Z,42.11
2024-03-08T02:10:50.778Z,41.25
2024-03-08T02:13:17.150Z,41.76
2024-03-08T02:15:43.478Z,41.28
2024-03-08T02:18:09.870Z,42.77
2024-03-08T02:20:36.264Z,42.39
2024-03-08T02:23:02.621Z,44.49
2024-03-08T02:25:28.914Z,43.31
2024-03-08T02:27:55.281Z,43.01
2024-03-08T02:30:21.618Z,43.21
2024-03-08T02:32:48.012Z,42.44
2024-03-08T02:35:15.234Z,41.80
2024-03-08T02:37:41.561Z,41.45
2024-03-08T02:40:07.859Z,42.19
2024-03-08T02:42:34.200Z,43.49
2024-03-08T02:45:00.533Z,43.96
2024-03-08T02:47:28.176Z,42.27
2024-03-08T02:49:54.699Z,41.85
2024-03-08T02:52:21.003Z,41.35
2024-03-08T02:54:47.263Z,42.19
2024-03-08T02:57:13.596Z,41.16
2024-03-08T02:59:39.952Z,40.76
2024-03-08T03:02:06.258Z,40.15
2024-03-08T03:04:32.533Z,41.04
2024-03-08T03:06:58.821Z,42.47
2024-03-08T03:09:25.162Z,43.53
2024-03-08T03:11:51.537Z,43.17
2024-03-08T03:14:17.877Z,43.40
2024-03-08T03:16:44.149Z,42.11
2024-03-08T03:19:10.469Z,42.18
2024-03-08T03:21:36.753Z,42.08
2024-03-08T03:24:03.090Z,42.72
2024-03-08T03:26:29.426Z,44.26
2024-03-08T03:28:55.721Z,43.72
2024-03-08T03:31:21.984Z,43.53
2024-03-08T03:33:48.422Z,42.56
2024-03-08T03:36:14.841Z,42.46
2024-03-08T03:38:41.263Z,43.14
2024-03-08T03:41:07.693Z,43.78
2024-03-08T03:43:34.029Z,45.76
2024-03-08T03:46:00.348Z,46.40
2024-03-08T03:48:26.799Z,46.43
2024-03-08T03:50:53.188Z,46.92
2024-03-08T03:53:19.508Z,46.98
2024-03-08T03:55:45.783Z,46.94
2024-03-08T03:58:12.550Z,47.12
2024-03-08T04:00:38.956Z,47.47
2024-03-08T04:03:05.287Z,47.10
2024-03-08T04:05:32.510Z,47.18
2024-03-08T04:07:58.806Z,47.27
2024-03-08T04:10:25.104Z,48.09
2024-03-08T04:13:11.356Z,48.24
2024-03-08T04:15:50.157Z,48.28
2024-03-08T04:18:17.784Z,47.86
2024-03-08T04:20:44.195Z,47.23
2024-03-08T04:23:10.531Z,45.42
2024-03-08T04:25:36.837Z,45.21
2024-03-08T04:28:03.144Z,43.06
2024-03-08T04:30:29.427Z,44.88
2024-03-08T04:32:55.937Z,45.97
2024-03-08T04:35:22.258Z,45.22
2024-03-08T04:37:48.555Z,45.01
2024-03-08T04:40:14.868Z,45.63
2024-03-08T04:42:41.155Z,43.96
2024-03-08T04:45:07.488Z,43.77
2024-03-08T04:47:33.993Z,41.85
2024-03-08T04:50:00.368Z,41.48
2024-03-08T04:52:26.673Z,40.44
2024-03-08T04:54:52.950Z,38.99
2024-03-08T04:57:19.369Z,38.93
2024-03-08T04:59:45.907Z,40.85
2024-03-08T05:02:12.179Z,41.91
2024-03-08T05:04:38.457Z,42.56
2024-03-08T05:07:04.728Z,43.69
2024-03-08T05:09:31.075Z,43.04
2024-03-08T05:11:57.461Z,42.59
2024-03-08T05:14:23.767Z,43.05
2024-03-08T05:16:50.413Z,43.95
2024-03-08T05:19:16.832Z,44.42
2024-03-08T05:21:43.105Z,45.17
2024-03-08T05:24:09.491Z,46.32
2024-03-08T05:26:35.845Z,46.82
2024-03-08T05:29:02.118Z,47.32
2024-03-08T05:31:28.395Z,45.57
2024-03-08T05:33:54.826Z,45.30
2024-03-08T05:36:21.330Z,44.83
2024-03-08T05:38:47.676Z,45.40
2024-03-08T05:41:13.979Z,45.88
2024-03-08T05:43:40.282Z,45.93
2024-03-08T05:46:06.568Z,45.87
2024-03-08T05:48:32.910Z,45.83
2024-03-08T05:50:59.331Z,46.48
2024-03-08T05:53:25.759Z,46.32
2024-03-08T05:55:52.092Z,45.51
2024-03-08T05:58:18.484Z,45.88
2024-03-08T06:00:44.801Z,46.86
2024-03-08T06:03:11.163Z,46.33
2024-03-08T06:05:37.558Z,44.10
2024-03-08T06:08:03.843Z,42.94
2024-03-08T06:10:30.201Z,42.69
2024-03-08T06:12:56.673Z,43.27
2024-03-08T06:15:23.068Z,44.93
2024-03-08T06:17:49.479Z,45.20
2024-03-08T06:20:15.857Z,43.46
2024-03-08T06:22:42.148Z,41.76
2024-03-08T06:25:08.453Z,41.79
2024-03-08T06:27:34.739Z,40.83
2024-03-08T06:30:01.083Z,40.15
2024-03-08T06:32:27.383Z,40.37
2024-03-08T06:34:53.663Z,41.76
2024-03-08T06:37:19.957Z,40.85
2024-03-08T06:39:46.271Z,42.62
2024-03-08T06:42:12.575Z,43.02
2024-03-08T06:44:38.922Z,41.25
2024-03-08T06:47:05.262Z,40.00
2024-03-08T06:49:31.618Z,39.77
2024-03-08T06:51:57.903Z,41.42
2024-03-08T06:54:24.239Z,40.11
2024-03-08T06:56:50.557Z,39.05
2024-03-08T06:59:16.861Z,37.59
2024-03-08T07:01:43.199Z,39.41
2024-03-08T07:04:09.540Z,41.23
2024-03-08T07:06:35.899Z,41.01
2024-03-08T07:09:02.300Z,40.58
2024-03-08T07:11:28.683Z,38.77
2024-03-08T07:13:54.994Z,37.07
2024-03-08T07:16:21.273Z,37.61
2024-03-08T07:18:47.727Z,39.54
2024-03-08T07:21:14.165Z,36.15
2024-03-08T07:23:40.568Z,36.60
2024-03-08T07:26:07.197Z,37.07
2024-03-08T07:28:33.573Z,36.07
2024-03-08T07:30:59.905Z,35.86
2024-03-08T07:33:26.328Z,34.53
2024-03-08T07:35:52.722Z,35.16
2024-03-08T07:38:19.005Z,35.47
2024-03-08T07:40:45.720Z,35.99
2024-03-08T07:43:12.378Z,36.37
2024-03-08T07:45:38.661Z,35.81
2024-03-08T07:48:05.198Z,36.40
2024-03-08T07:50:31.739Z,36.02
2024-03-08T07:52:58.028Z,35.28
2024-03-08T07:55:24.379Z,34.86
2024-03-08T07:57:50.739Z,35.87
2024-03-08T08:00:17.047Z,37.29
2024-03-08T08:02:43.639Z,37.70
2024-03-08T08:05:09.932Z,36.86
2024-03-08T08:07:36.300Z,36.30
2024-03-08T08:10:02.597Z,35.09
2024-03-08T08:12:28.883Z,35.57
2024-03-08T08:14:55.174Z,34.86
2024-03-08T08:17:21.458Z,34.54
2024-03-08T08:19:47.769Z,33.75
2024-03-08T08:22:14.073Z,33.98
2024-03-08T08:24:40.402Z,33.91
2024-03-08T08:27:06.738Z,34.37
2024-03-08T08:29:33.041Z,34.02
2024-03-08T08:32:00.128Z,35.92
2024-03-08T08:34:27.382Z,37.64
2024-03-08T08:36:53.688Z,35.74
2024-03-08T08:39:19.962Z,34.66
2024-03-08T08:41:46.378Z,35.67
2024-03-08T08:44:16.301Z,35.97
2024-03-08T08:46:43.268Z,34.78
2024-03-08T08:49:09.576Z,34.43
2024-03-08T08:51:36.868Z,35.06
2024-03-08T08:54:03.315Z,35.07
2024-03-08T08:56:29.602Z,35.67
2024-03-08T08:58:55.905Z,35.11
2024-03-08T09:01:22.395Z,34.69
2024-03-08T09:03:48.764Z,35.28
2024-03-08T09:06:15.080Z,33.27
2024-03-08T09:08:41.398Z,32.21
2024-03-08T09:11:07.727Z,33.67
2024-03-08T09:13:35.455Z,33.76
2024-03-08T09:16:01.920Z,33.78
2024-03-08T09:18:28.200Z,31.58
2024-03-08T09:20:54.497Z,32.17
2024-03-08T09:23:20.784Z,32.17
2024-03-08T09:25:48.007Z,32.88
2024-03-08T09:28:14.599Z,32.76
2024-03-08T09:30:43.737Z,36.59
2024-03-08T09:33:10.217Z,34.09
2024-03-08T09:35:36.506Z,34.69
2024-03-08T09:38:02.806Z,32.31
2024-03-08T09:40:30.289Z,32.26
2024-03-08T09:42:56.610Z,33.58
2024-03-08T09:45:22.895Z,34.00
2024-03-08T09:47:49.228Z,34.04
2024-03-08T09:50:15.519Z,32.86
2024-03-08T09:52:41.876Z,32.98
2024-03-08T09:55:08.204Z,35.40
2024-03-08T09:57:34.481Z,34.14
2024-03-08T10:00:00.763Z,34.34
2024-03-08T10:02:27.209Z,35.09
2024-03-08T10:04:53.583Z,36.20
2024-03-08T10:07:19.996Z,36.28
2024-03-08T10:09:46.380Z,36.32
2024-03-08T10:12:12.663Z,35.14
2024-03-08T10:14:38.933Z,35.49
2024-03-08T10:17:05.233Z,33.44
2024-03-08T10:19:31.730Z,34.00
2024-03-08T10:21:58.172Z,34.73
2024-03-08T10:24:24.500Z,31.49
2024-03-08T10:26:50.784Z,30.68
2024-03-08T10:29:17.145Z,29.46
2024-03-08T10:31:43.521Z,29.53
2024-03-08T10:34:09.847Z,30.04
2024-03-08T10:36:36.124Z,31.29
2024-03-08T10:39:02.495Z,31.92
2024-03-08T10:41:28.826Z,32.08
2024-03-08T10:43:55.151Z,31.15
2024-03-08T10:46:21.450Z,31.69
2024-03-08T10:48:47.777Z,31.69
2024-03-08T10:51:14.065Z,30.48
2024-03-08T10:53:40.367Z,32.61
2024-03-08T10:56:06.721Z,32.66
2024-03-08T10:58:33.165Z,32.92
2024-03-08T11:00:59.565Z,31.20
2024-03-08T11:03:25.888Z,31.34
2024-03-08T11:05:52.173Z,31.10
2024-03-08T11:08:18.524Z,30.77
2024-03-08T11:10:44.954Z,30.75
2024-03-08T11:13:11.239Z,30.86
2024-03-08T11:15:37.554Z,31.51
2024-03-08T11:18:03.943Z,30.29
2024-03-08T11:20:30.262Z,29.18
2024-03-08T11:22:56.679Z,28.50
2024-03-08T11:25:23.158Z,28.01
2024-03-08T11:27:49.475Z,29.43
2024-03-08T11:30:18.445Z,28.39
2024-03-08T11:32:45.351Z,29.91
2024-03-08T11:35:11.651Z,33.05
2024-03-08T11:37:37.970Z,31.03
2024-03-08T11:40:04.310Z,30.27
2024-03-08T11:42:30.606Z,30.55
2024-03-08T11:44:56.903Z,29.69
2024-03-08T11:47:23.216Z,29.83
2024-03-08T11:49:49.763Z,32.75
2024-03-08T11:52:16.260Z,30.29
2024-03-08T11:54:42.605Z,31.12
2024-03-08T11:57:08.878Z,28.89
2024-03-08T11:59:35.154Z,29.23
2024-03-08T12:02:02.133Z,29.23
2024-03-08T12:04:28.627Z,28.14
2024-03-08T12:06:54.921Z,29.12
2024-03-08T12:09:21.226Z,28.71
2024-03-08T12:11:47.565Z,26.99
2024-03-08T12:14:13.882Z,29.50
2024-03-08T12:16:40.250Z,30.27
2024-03-08T12:19:06.634Z,29.96
2024-03-08T12:21:32.965Z,27.92
2024-03-08T12:23:59.269Z,28.54
2024-03-08T12:26:25.554Z,29.36
2024-03-08T12:28:51.922Z,30.62
2024-03-08T12:31:18.338Z,30.47
2024-03-08T12:33:44.731Z,29.10
2024-03-08T12:36:11.028Z,28.39
2024-03-08T12:38:37.322Z,32.16
2024-03-08T12:41:04.193Z,30.57
2024-03-08T12:43:30.693Z,32.69
2024-03-08T12:45:57.043Z,33.43
2024-03-08T12:48:23.321Z,32.66
2024-03-08T12:50:49.632Z,32.05
2024-03-08T12:53:16.036Z,33.56
2024-03-08T12:55:42.475Z,34.86
2024-03-08T12:58:08.831Z,35.01
2024-03-08T13:00:35.176Z,35.88
2024-03-08T13:03:01.482Z,34.49
2024-03-08T13:05:27.769Z,34.55
2024-03-08T13:07:54.287Z,34.44
2024-03-08T13:10:20.807Z,36.24
2024-03-08T13:12:48.322Z,35.64
2024-03-08T13:15:15.644Z,36.57
2024-03-08T13:17:42.003Z,35.80
2024-03-08T13:20:08.339Z,36.35
2024-03-08T13:22:34.698Z,35.65
2024-03-08T13:25:01.014Z,37.41
2024-03-08T13:27:27.324Z,36.64
2024-03-08T13:29:53.632Z,37.31
2024-03-08T13:32:19.932Z,36.80
2024-03-08T13:34:46.298Z,36.50
2024-03-08T13:37:13.398Z,36.94
2024-03-08T13:39:39.702Z,37.56
2024-03-08T13:42:06.061Z,36.65
2024-03-08T13:44:32.387Z,36.38
2024-03-08T13:46:58.767Z,36.44
2024-03-08T13:49:25.145Z,37.26
2024-03-08T13:51:51.468Z,37.27
2024-03-08T13:54:17.763Z,36.49
2024-03-08T13:56:44.125Z,35.53
2024-03-08T13:59:10.577Z,36.74
2024-03-08T14:01:37.188Z,36.65
2024-03-08T14:04:03.565Z,35.47
2024-03-08T14:06:29.870Z,36.09
2024-03-08T14:08:56.219Z,36.80
2024-03-08T14:11:22.599Z,37.30
2024-03-08T14:13:49.112Z,37.48
2024-03-08T14:16:15.560Z,37.61
2024-03-08T14:18:41.890Z,38.17
2024-03-08T14:21:08.226Z,37.30
2024-03-08T14:23:34.545Z,38.02
2024-03-08T14:26:01.006Z,38.12
2024-03-08T14:28:27.436Z,38.78
2024-03-08T14:30:53.738Z,37.54
2024-03-08T14:33:20.047Z,37.91
2024-03-08T14:35:46.368Z,37.66
2024-03-08T14:38:12.657Z,38.21
2024-03-08T14:40:39.011Z,38.79
2024-03-08T14:43:06.714Z,38.48
2024-03-08T14:45:33.401Z,38.13
2024-03-08T14:47:59.847Z,38.96
2024-03-08T14:50:26.215Z,38.97
2024-03-08T14:52:52.634Z,38.33
2024-03-08T14:55:19.078Z,39.23
2024-03-08T14:57:45.408Z,38.77
2024-03-08T15:00:11.690Z,38.40
2024-03-08T15:02:38.012Z,37.61
2024-03-08T15:05:04.348Z,38.00
2024-03-08T15:07:30.675Z,37.59
2024-03-08T15:09:56.988Z,38.85
2024-03-08T15:12:23.295Z,38.77
2024-03-08T15:14:49.582Z,37.81
2024-03-08T15:17:19.501Z,38.13
2024-03-08T15:19:45.895Z,37.39
2024-03-08T15:22:12.211Z,37.39
2024-03-08T15:24:38.546Z,37.87
2024-03-08T15:27:04.884Z,38.16
2024-03-08T15:29:31.166Z,38.41
2024-03-08T15:31:57.473Z,38.77
2024-03-08T15:34:23.824Z,38.07
2024-03-08T15:36:50.103Z,38.62
2024-03-08T15:39:16.383Z,38.89
2024-03-08T15:41:42.691Z,38.28
2024-03-08T15:44:09.060Z,38.89
2024-03-08T15:46:35.775Z,38.16
2024-03-08T15:49:02.164Z,38.50
2024-03-08T15:51:28.468Z,39.12
2024-03-08T15:53:54.871Z,39.47
2024-03-08T15:56:21.221Z,39.07
2024-03-08T15:58:47.541Z,38.16
2024-03-08T16:01:14.432Z,38.50
2024-03-08T16:03:40.849Z,38.84
2024-03-08T16:06:07.177Z,38.92
2024-03-08T16:08:33.467Z,38.93
2024-03-08T16:10:59.855Z,39.15
2024-03-08T16:13:26.240Z,39.68
2024-03-08T16:15:52.628Z,39.20
2024-03-08T16:18:18.993Z,39.83
2024-03-08T16:20:45.267Z,38.97
2024-03-08T16:23:11.568Z,39.38
2024-03-08T16:25:37.911Z,40.28
2024-03-08T16:28:04.272Z,39.73
2024-03-08T16:30:30.577Z,39.65
2024-03-08T16:32:57.033Z,38.81
2024-03-08T16:35:23.344Z,38.75
2024-03-08T16:37:49.713Z,38.40
2024-03-08T16:40:16.040Z,38.63
2024-03-08T16:42:42.343Z,38.56
2024-03-08T16:45:08.626Z,39.68
2024-03-08T16:47:35.021Z,39.91
2024-03-08T16:50:01.522Z,39.68
2024-03-08T16:52:28.127Z,40.54
2024-03-08T16:57:23.268Z,39.74
2024-03-08T16:59:49.577Z,38.30
2024-03-08T17:02:15.969Z,40.24
2024-03-08T17:04:42.304Z,42.74
2024-03-08T17:07:08.589Z,39.03
2024-03-08T17:09:34.868Z,39.20
2024-03-08T17:12:01.227Z,40.27
2024-03-08T17:14:27.536Z,40.31
2024-03-08T17:16:54.428Z,40.87
2024-03-08T17:19:20.828Z,40.36
2024-03-08T17:21:47.129Z,41.40
2024-03-08T17:24:13.437Z,40.91
2024-03-08T17:26:39.752Z,42.02
2024-03-08T17:29:06.091Z,41.71
2024-03-08T17:31:32.466Z,42.31
2024-03-08T17:33:58.787Z,41.68
2024-03-08T17:36:25.116Z,41.98
2024-03-08T17:38:51.820Z,40.96
2024-03-08T17:41:18.384Z,41.43
2024-03-08T17:43:44.707Z,41.89
2024-03-08T17:46:11.013Z,42.36
2024-03-08T17:48:37.294Z,42.57
2024-03-08T17:51:03.586Z,43.79
2024-03-08T17:53:29.890Z,42.73
2024-03-08T17:55:56.262Z,42.39
2024-03-08T17:58:22.591Z,42.11
2024-03-08T18:00:48.928Z,41.67
2024-03-08T18:03:15.221Z,41.90
2024-03-08T18:05:41.559Z,43.06
2024-03-08T18:08:07.926Z,41.90
2024-03-08T18:10:34.270Z,42.98
2024-03-08T18:13:00.573Z,44.25
2024-03-08T18:15:26.964Z,44.60
2024-03-08T18:17:53.430Z,43.93
2024-03-08T18:20:19.733Z,44.41
2024-03-08T18:22:46.072Z,43.00
2024-03-08T18:25:12.370Z,43.49
2024-03-08T18:27:38.658Z,44.45
2024-03-08T18:30:04.963Z,43.68
2024-03-08T18:32:31.270Z,43.61
2024-03-08T18:34:57.675Z,42.85
2024-03-08T18:37:24.107Z,42.26
2024-03-08T18:39:50.410Z,42.50
2024-03-08T18:42:16.707Z,41.12
2024-03-08T18:44:43.109Z,42.15
2024-03-08T18:47:09.553Z,42.39
2024-03-08T18:49:35.864Z,44.55
2024-03-08T18:52:02.235Z,44.80
2024-03-08T18:54:28.581Z,44.47
2024-03-08T18:56:54.872Z,44.58
2024-03-08T18:59:21.198Z,44.62
2024-03-08T19:01:47.571Z,44.99
2024-03-08T19:04:13.857Z,44.50
2024-03-08T19:06:40.169Z,44.69
2024-03-08T19:09:06.499Z,44.96
2024-03-08T19:11:32.862Z,44.71
2024-03-08T19:13:59.203Z,44.66
2024-03-08T19:16:25.566Z,43.98
2024-03-08T19:18:51.939Z,44.94
2024-03-08T19:21:18.228Z,44.46
2024-03-08T19:23:44.554Z,44.71
2024-03-08T19:26:10.964Z,44.54
2024-03-08T19:28:37.338Z,44.46
2024-03-08T19:31:03.652Z,46.18
2024-03-08T19:33:32.593Z,48.21
2024-03-08T19:35:59.381Z,46.72
2024-03-08T19:38:25.732Z,47.45
2024-03-08T19:40:52.189Z,47.28
2024-03-08T19:43:18.504Z,47.08
2024-03-08T19:45:45.416Z,46.00
2024-03-08T19:48:11.987Z,45.00
2024-03-08T19:50:38.294Z,44.97
2024-03-08T19:53:04.907Z,46.81
2024-03-08T19:55:31.432Z,45.63
2024-03-08T19:57:58.471Z,47.19
2024-03-08T20:00:25.102Z,47.43
2024-03-08T20:02:51.412Z,47.75
2024-03-08T20:05:17.699Z,47.13
2024-03-08T20:07:44.026Z,46.78
2024-03-08T20:10:10.317Z,45.54
2024-03-08T20:12:36.659Z,46.41
2024-03-08T20:15:02.974Z,46.65
2024-03-08T20:17:29.273Z,45.99
2024-03-08T20:19:55.603Z,45.55
2024-03-08T20:22:21.999Z,46.11
2024-03-08T20:24:48.308Z,47.29
2024-03-08T20:27:14.676Z,47.57
2024-03-08T20:29:41.018Z,47.20
2024-03-08T20:32:07.357Z,47.71
2024-03-08T20:34:33.691Z,46.73
2024-03-08T20:37:00.026Z,46.00
2024-03-08T20:39:26.327Z,45.23
2024-03-08T20:41:52.605Z,44.46
2024-03-08T20:44:18.901Z,44.58
2024-03-08T20:46:45.216Z,44.59
2024-03-08T20:49:11.559Z,45.76
2024-03-08T20:51:37.893Z,47.87
2024-03-08T20:54:04.186Z,49.80
2024-03-08T20:56:30.475Z,48.04
2024-03-08T20:58:59.940Z,47.34
2024-03-08T21:01:26.419Z,46.00
2024-03-08T21:03:52.736Z,46.38
2024-03-08T21:06:19.140Z,46.12
2024-03-08T21:08:45.566Z,45.79
2024-03-08T21:11:11.938Z,45.93
2024-03-08T21:13:38.327Z,46.26
2024-03-08T21:16:04.704Z,47.01
2024-03-08T21:18:30.982Z,46.40
2024-03-08T21:20:57.388Z,46.66
2024-03-08T21:23:23.802Z,45.91
2024-03-08T21:25:50.230Z,45.43
2024-03-08T21:28:16.667Z,46.05
2024-03-08T21:30:43.005Z,46.55
2024-03-08T21:33:09.339Z,46.43
2024-03-08T21:35:35.796Z,46.58
2024-03-08T21:38:02.679Z,45.56
2024-03-08T21:40:29.148Z,45.75
2024-03-08T21:42:55.465Z,47.59
2024-03-08T21:45:21.751Z,47.42
2024-03-08T21:47:48.089Z,46.48
2024-03-08T21:50:14.466Z,45.82
2024-03-08T21:52:40.791Z,47.21
2024-03-08T21:55:07.107Z,47.88
2024-03-08T21:57:33.402Z,46.11
2024-03-08T21:59:59.698Z,45.18
2024-03-08T22:02:26.076Z,44.92
2024-03-08T22:04:52.472Z,45.26
2024-03-08T22:07:18.777Z,46.49
2024-03-08T22:09:45.061Z,48.12
2024-03-08T22:12:11.433Z,49.38
2024-03-08T22:14:37.818Z,50.07
2024-03-08T22:17:04.190Z,48.80
2024-03-08T22:19:30.514Z,47.35
2024-03-08T22:21:56.820Z,46.87
2024-03-08T22:24:23.133Z,45.55
2024-03-08T22:26:49.435Z,44.15
2024-03-08T22:29:15.712Z,43.62
2024-03-08T22:31:42.078Z,45.07
2024-03-08T22:34:08.425Z,45.40
2024-03-08T22:36:34.734Z,45.75
2024-03-08T22:39:01.032Z,45.31
2024-03-08T22:41:27.371Z,45.93
2024-03-08T22:43:53.712Z,46.52
2024-03-08T22:46:20.020Z,47.86
2024-03-08T22:48:46.380Z,48.37
2024-03-08T22:51:13.513Z,48.42
2024-03-08T22:53:40.021Z,47.84
2024-03-08T22:56:06.473Z,47.18
2024-03-08T22:58:32.981Z,49.15
2024-03-08T23:00:59.347Z,49.97
2024-03-08T23:03:25.696Z,50.36
2024-03-08T23:05:52.409Z,50.51
2024-03-08T23:08:18.703Z,50.33
2024-03-08T23:10:45.106Z,50.50
2024-03-08T23:13:11.408Z,50.97
2024-03-08T23:15:37.708Z,51.57
2024-03-08T23:18:04.095Z,50.84
2024-03-08T23:20:30.472Z,51.11
2024-03-08T23:22:56.869Z,51.79
2024-03-08T23:25:23.204Z,50.30
2024-03-08T23:27:49.507Z,50.64
2024-03-08T23:30:15.783Z,51.43
2024-03-08T23:32:42.086Z,51.49
2024-03-08T23:35:08.455Z,50.83
2024-03-08T23:37:34.798Z,51.01
2024-03-08T23:40:01.117Z,50.21
2024-03-08T23:42:27.444Z,49.86
2024-03-08T23:44:53.719Z,48.92
2024-03-08T23:47:20.010Z,47.97
2024-03-08T23:49:46.351Z,48.41
2024-03-08T23:52:12.665Z,49.33
2024-03-08T23:54:38.960Z,49.19
2024-03-08T23:57:05.248Z,50.23
2024-03-08T23:59:31.555Z,49.84
